Time;durP1;ratioP1;P1;durP2;ratioP2;P2;SDS_P1;SDS_P2;PMS_P1;PMS_P2;Temp;Humidity;BMP_temperature;BMP_pressure;BME280_temperature;BME280_humidity;BME280_pressure;Samples;Min_cycle;Max_cycle;Signal;HPM_P1;HPM_P2
2021/12/25 00:02:23;;;;;;;2.55;2.35;;;;;;;3.30;80.68;100047.38;5011931;28;20030;-50
2021/12/25 00:04:48;;;;;;;2.53;2.33;;;;;;;3.30;80.50;100055.19;5027098;28;20391;-50
2021/12/25 00:07:13;;;;;;;2.33;2.10;;;;;;;3.31;80.50;100051.72;5028445;28;20029;-48
2021/12/25 00:09:39;;;;;;;2.00;1.90;;;;;;;3.32;80.57;100061.31;5029875;28;20501;-50
2021/12/25 00:12:04;;;;;;;2.33;2.17;;;;;;;3.33;80.65;100062.16;5029560;28;20032;-50
2021/12/25 00:14:29;;;;;;;2.60;2.40;;;;;;;3.32;80.20;100068.25;5031533;28;20112;-50
2021/12/25 00:16:58;;;;;;;1.92;1.70;;;;;;;3.32;80.45;100079.56;5012436;28;20033;-50
2021/12/25 00:19:23;;;;;;;2.10;1.80;;;;;;;3.32;80.78;100083.88;5013343;28;20395;-49
2021/12/25 00:21:48;;;;;;;2.10;1.85;;;;;;;3.31;80.80;100092.56;5030770;28;20042;-49
2021/12/25 00:24:14;;;;;;;2.22;2.13;;;;;;;3.32;80.45;100095.19;5031517;28;20116;-50
2021/12/25 00:27:02;;;;;;;2.08;1.98;;;;;;;3.31;80.40;100103.84;5036620;28;20095;-49
2021/12/25 00:30:19;;;;;;;2.15;1.48;;;;;;;3.31;80.25;100118.66;5030307;28;20029;-49
2021/12/25 00:32:41;;;;;;;2.15;1.50;;;;;;;3.31;80.45;100103.00;5027870;28;20033;-49
2021/12/25 00:35:01;;;;;;;2.03;1.83;;;;;;;3.33;80.17;100116.91;5031456;28;20361;-48
2021/12/25 00:37:26;;;;;;;1.73;1.63;;;;;;;3.30;80.54;100111.69;5030269;28;20099;-49
2021/12/25 00:39:54;;;;;;;2.75;2.03;;;;;;;3.31;80.45;100105.63;5028173;28;20056;-49
2021/12/25 00:42:20;;;;;;;1.60;1.50;;;;;;;3.34;79.86;100113.47;5030078;28;20112;-49
2021/12/25 00:44:46;;;;;;;1.63;1.52;;;;;;;3.32;80.46;100126.50;5033630;28;20479;-50
2021/12/25 00:47:12;;;;;;;1.63;1.52;;;;;;;3.30;80.13;100128.19;5028535;28;20029;-49
2021/12/25 00:49:38;;;;;;;1.90;1.60;;;;;;;3.30;80.19;100137.75;5027093;28;20021;-50
2021/12/25 00:52:04;;;;;;;1.80;1.58;;;;;;;3.30;80.30;100127.34;5030464;28;20021;-49
2021/12/25 00:54:29;;;;;;;2.28;1.58;;;;;;;3.32;80.02;100120.38;5033899;28;20040;-49
2021/12/25 00:56:54;;;;;;;1.50;1.40;;;;;;;3.29;80.04;100121.22;5035562;28;20048;-49
2021/12/25 00:59:19;;;;;;;1.42;1.33;;;;;;;3.30;80.34;100127.34;5034545;28;20017;-50
2021/12/25 01:01:45;;;;;;;2.17;1.50;;;;;;;3.30;79.82;100127.34;5033199;28;20022;-50
2021/12/25 01:04:11;;;;;;;1.33;1.23;;;;;;;3.31;79.92;100131.69;5033898;28;20555;-50
2021/12/25 01:06:36;;;;;;;1.30;1.20;;;;;;;3.31;80.18;100142.97;5034305;28;20422;-49
2021/12/25 01:09:03;;;;;;;1.63;1.52;;;;;;;3.30;80.07;100146.44;5036527;28;20029;-49
2021/12/25 01:11:32;;;;;;;1.40;1.30;;;;;;;3.29;80.26;100138.59;5033141;28;20064;-49
2021/12/25 01:14:21;;;;;;;1.50;1.30;;;;;;;3.28;80.46;100145.56;5031006;28;20523;-49
2021/12/25 01:25:05;;;;;;;1.42;1.10;;;;;;;3.26;79.87;100151.59;5037061;28;20036;-49
2021/12/25 01:28:20;;;;;;;1.27;1.20;;;;;;;3.28;80.22;100160.31;5034218;28;20383;-49
2021/12/25 01:36:34;;;;;;;1.00;1.00;;;;;;;3.25;79.90;100171.56;5019199;28;20566;-50
2021/12/25 01:49:33;;;;;;;1.00;1.00;;;;;;;3.22;79.52;100181.97;5033956;28;20040;-49
2021/12/25 01:51:59;;;;;;;1.20;1.10;;;;;;;3.23;80.17;100188.06;5038152;28;20025;-50
2021/12/25 01:54:24;;;;;;;1.08;1.08;;;;;;;3.23;79.68;100194.13;5035166;28;20029;-47
2021/12/25 01:56:52;;;;;;;1.15;1.08;;;;;;;3.25;79.48;100188.94;5035698;28;20033;-49
2021/12/25 01:59:17;;;;;;;1.45;1.35;;;;;;;3.25;79.85;100191.53;5024327;28;20033;-49
2021/12/25 02:01:43;;;;;;;1.20;1.20;;;;;;;3.25;79.50;100196.75;5036333;28;20029;-49
2021/12/25 02:04:09;;;;;;;0.90;0.90;;;;;;;3.26;79.38;100203.72;5012931;28;20029;-50
2021/12/25 02:06:34;;;;;;;0.80;0.80;;;;;;;3.26;78.89;100203.72;5036895;28;20036;-47
2021/12/25 02:09:00;;;;;;;0.90;0.90;;;;;;;3.23;79.66;100209.75;5028937;28;20033;-50
2021/12/25 02:11:25;;;;;;;1.10;1.10;;;;;;;3.23;79.83;100219.34;5033545;28;20033;-49
2021/12/25 02:13:51;;;;;;;1.20;1.10;;;;;;;3.23;79.50;100207.16;5037437;28;20025;-50
2021/12/25 02:16:19;;;;;;;0.82;0.80;;;;;;;3.21;79.64;100212.34;5036032;28;20073;-50
2021/12/25 02:19:09;;;;;;;0.90;0.90;;;;;;;3.23;79.37;100206.31;5033943;28;20038;-50
2021/12/25 02:21:37;;;;;;;1.15;1.15;;;;;;;3.21;79.29;100201.91;5035090;28;20025;-49
2021/12/25 02:24:11;;;;;;;1.05;0.90;;;;;;;3.22;79.61;100197.59;5015230;28;20052;-50
2021/12/25 02:26:38;;;;;;;0.90;0.90;;;;;;;3.21;79.03;100194.09;5034001;28;20052;-50
2021/12/25 02:29:04;;;;;;;1.05;0.98;;;;;;;3.21;79.43;100191.50;5011018;28;20040;-49
2021/12/25 02:31:29;;;;;;;1.00;0.98;;;;;;;3.21;79.34;100204.53;5027577;28;20451;-50
2021/12/25 02:33:55;;;;;;;1.17;1.10;;;;;;;3.21;79.23;100201.06;5030492;28;20037;-50
2021/12/25 02:36:20;;;;;;;1.08;1.05;;;;;;;3.23;79.08;100198.47;5030337;28;20064;-50
2021/12/25 02:38:47;;;;;;;2.35;1.15;;;;;;;3.19;79.27;100195.81;5035412;28;20075;-50
2021/12/25 02:41:12;;;;;;;1.10;1.10;;;;;;;3.19;79.02;100205.38;5030155;28;20021;-50
2021/12/25 02:43:39;;;;;;;1.20;1.10;;;;;;;3.17;78.77;100194.06;5030465;28;20028;-50
2021/12/25 02:46:05;;;;;;;0.98;0.90;;;;;;;3.18;79.08;100198.41;5012885;28;20538;-49
2021/12/25 02:48:33;;;;;;;1.17;1.08;;;;;;;3.18;79.31;100194.09;5011036;28;20391;-50
2021/12/25 02:50:59;;;;;;;2.15;1.10;;;;;;;3.17;78.70;100197.53;5033084;28;20021;-50
2021/12/25 02:53:24;;;;;;;1.33;1.23;;;;;;;3.17;78.96;100207.94;5033164;28;20498;-50
2021/12/25 02:55:50;;;;;;;1.15;1.15;;;;;;;3.17;79.07;100210.56;5031102;28;20045;-50
2021/12/25 02:58:19;;;;;;;1.40;1.30;;;;;;;3.15;79.05;100201.84;5029659;28;20028;-50
2021/12/25 03:00:52;;;;;;;1.92;1.20;;;;;;;3.15;79.01;100204.47;5032125;28;20025;-50
2021/12/25 03:03:18;;;;;;;1.05;1.05;;;;;;;3.15;79.53;100211.41;5033531;28;20028;-50
2021/12/25 03:05:43;;;;;;;1.60;1.30;;;;;;;3.15;78.63;100212.28;5032515;28;20499;-49
2021/12/25 03:08:13;;;;;;;1.70;1.40;;;;;;;3.16;78.60;100219.25;5030294;28;20036;-50
2021/12/25 03:10:40;;;;;;;1.40;1.30;;;;;;;3.15;78.50;100222.72;5035619;28;20040;-49
2021/12/25 03:15:46;;;;;;;1.83;1.20;;;;;;;3.14;78.65;100226.16;5036551;28;20263;-49
2021/12/25 03:18:23;;;;;;;1.23;1.13;;;;;;;3.13;78.75;100229.63;5029431;28;20141;-49
2021/12/25 03:20:51;;;;;;;1.23;1.15;;;;;;;3.12;78.74;100230.47;5033537;28;20036;-50
2021/12/25 03:23:19;;;;;;;1.15;1.05;;;;;;;3.11;78.74;100226.13;5016434;28;20029;-49
2021/12/25 03:25:46;;;;;;;2.38;1.63;;;;;;;3.11;78.75;100220.03;5031809;28;20029;-49
2021/12/25 03:28:13;;;;;;;1.40;1.30;;;;;;;3.11;78.83;100222.63;5036907;28;20024;-50
2021/12/25 03:30:39;;;;;;;2.25;1.30;;;;;;;3.10;78.62;100218.28;5033851;28;20040;-49
2021/12/25 03:33:06;;;;;;;1.48;1.20;;;;;;;3.12;78.48;100216.56;5034407;28;20063;-50
2021/12/25 03:35:33;;;;;;;1.83;1.17;;;;;;;3.09;78.75;100217.41;5028882;28;20453;-50
2021/12/25 03:37:59;;;;;;;1.25;1.15;;;;;;;3.09;78.51;100212.19;5031413;28;20029;-50
2021/12/25 03:40:24;;;;;;;1.23;1.02;;;;;;;3.09;78.41;100217.41;5030944;28;20376;-50
2021/12/25 03:42:49;;;;;;;2.10;1.20;;;;;;;3.10;78.62;100223.50;5012134;28;20113;-49
2021/12/25 03:45:15;;;;;;;1.38;1.20;;;;;;;3.10;78.43;100223.50;5028386;28;20037;-50
2021/12/25 03:47:41;;;;;;;1.20;1.10;;;;;;;3.10;78.29;100233.91;5030581;28;20056;-48
2021/12/25 03:58:26;;;;;;;1.33;1.13;;;;;;;3.06;78.42;100240.78;5037812;28;20044;-50
2021/12/25 04:00:58;;;;;;;1.02;1.02;;;;;;;3.07;78.38;100255.59;5027633;28;20041;-47
2021/12/25 04:03:38;;;;;;;1.67;1.25;;;;;;;3.07;78.54;100247.78;5039556;28;20028;-49
2021/12/25 04:06:08;;;;;;;1.90;1.13;;;;;;;3.04;78.47;100245.97;5033060;28;20079;-49
2021/12/25 04:08:40;;;;;;;1.33;1.23;;;;;;;3.04;78.36;100248.59;5031775;28;20029;-49
2021/12/25 04:11:12;;;;;;;1.58;1.30;;;;;;;3.05;78.09;100246.88;5024741;28;20106;-50
2021/12/25 04:13:37;;;;;;;1.33;0.93;;;;;;;3.05;78.39;100257.28;5036215;28;20122;-49
2021/12/25 04:16:02;;;;;;;1.60;1.27;;;;;;;3.03;78.22;100254.66;5029868;28;20464;-49
2021/12/25 04:18:28;;;;;;;1.70;1.33;;;;;;;3.03;78.10;100257.28;5032735;28;20029;-49
2021/12/25 04:20:53;;;;;;;1.10;1.10;;;;;;;3.03;77.79;100265.09;5032272;28;20029;-50
2021/12/25 04:23:24;;;;;;;1.70;1.10;;;;;;;3.03;77.96;100269.44;5030966;28;20034;-50
2021/12/25 04:25:49;;;;;;;0.90;0.90;;;;;;;3.03;77.84;100279.88;5039125;28;20458;-50
2021/12/25 04:28:31;;;;;;;1.10;1.00;;;;;;;2.98;78.17;100276.28;5037419;28;20033;-49
2021/12/25 04:31:11;;;;;;;1.80;1.05;;;;;;;3.02;78.18;100283.28;5040126;28;20048;-48
2021/12/25 05:03:48;;;;;;;1.90;1.20;;;;;;;2.94;77.56;100301.44;5036631;28;20031;-50
2021/12/25 05:06:13;;;;;;;1.40;1.30;;;;;;;2.92;77.46;100297.91;5033935;28;20038;-49
2021/12/25 05:08:39;;;;;;;1.15;1.05;;;;;;;2.93;77.62;100300.53;5038745;28;20029;-50
2021/12/25 05:11:05;;;;;;;2.38;1.20;;;;;;;2.94;77.60;100304.91;5034008;28;20029;-50
2021/12/25 05:13:32;;;;;;;1.88;1.27;;;;;;;2.94;77.56;100310.09;5012354;28;20028;-50
2021/12/25 05:15:57;;;;;;;1.35;1.25;;;;;;;2.93;77.55;100308.34;5032060;28;20513;-49
2021/12/25 05:18:24;;;;;;;1.00;0.90;;;;;;;2.93;77.08;100310.97;5035774;28;20475;-49
2021/12/25 05:20:49;;;;;;;1.48;1.10;;;;;;;2.93;77.11;100315.28;5030558;28;20486;-50
2021/12/25 05:23:15;;;;;;;1.70;1.30;;;;;;;2.93;77.41;100310.97;5032786;28;20112;-49
2021/12/25 05:25:40;;;;;;;1.63;1.20;;;;;;;2.93;76.97;100313.56;5032891;28;20030;-50
2021/12/25 05:28:06;;;;;;;2.17;1.15;;;;;;;2.91;77.22;100304.88;5039208;28;20116;-49
2021/12/25 05:30:31;;;;;;;1.20;1.10;;;;;;;2.92;76.89;100316.16;5039501;28;20493;-49
2021/12/25 05:32:58;;;;;;;1.30;1.10;;;;;;;2.91;77.18;100317.00;5028895;28;20405;-49
2021/12/25 05:35:23;;;;;;;1.38;1.08;;;;;;;2.90;77.20;100315.25;5035300;28;20025;-50
2021/12/25 05:37:49;;;;;;;1.20;1.10;;;;;;;2.89;76.75;100316.09;5034370;28;20048;-50
2021/12/25 05:40:14;;;;;;;2.03;1.00;;;;;;;2.90;77.14;100320.47;5035398;28;20471;-50
2021/12/25 05:42:40;;;;;;;1.20;1.10;;;;;;;2.88;76.84;100323.03;5028750;28;20033;-50
2021/12/25 05:45:06;;;;;;;1.33;1.00;;;;;;;2.90;76.86;100312.66;5034562;28;20025;-50
2021/12/25 05:47:32;;;;;;;1.10;1.00;;;;;;;2.88;76.85;100311.75;5035812;28;20021;-50
2021/12/25 05:49:57;;;;;;;1.15;0.90;;;;;;;2.88;76.99;100322.16;5038124;28;20393;-49
2021/12/25 05:52:23;;;;;;;0.93;0.93;;;;;;;2.88;76.76;100317.84;5037318;28;20203;-50
2021/12/25 05:54:48;;;;;;;1.77;1.10;;;;;;;2.87;76.90;100313.44;5034745;28;20021;-50
2021/12/25 05:57:14;;;;;;;1.08;0.98;;;;;;;2.87;76.92;100316.06;5036686;28;20040;-50
2021/12/25 05:59:39;;;;;;;0.80;0.80;;;;;;;2.86;77.13;100324.72;5039397;28;20060;-50
2021/12/25 06:02:05;;;;;;;0.90;0.90;;;;;;;2.87;76.38;100326.47;5033205;28;20033;-50
2021/12/25 06:04:31;;;;;;;1.23;1.00;;;;;;;2.86;76.88;100327.34;5037789;28;20040;-49
2021/12/25 06:06:56;;;;;;;0.93;0.80;;;;;;;2.86;76.28;100319.53;5030362;28;20021;-49
2021/12/25 06:09:21;;;;;;;1.23;1.13;;;;;;;2.85;76.63;100316.88;5028292;28;20458;-49
2021/12/25 06:11:47;;;;;;;0.82;0.80;;;;;;;2.84;76.75;100329.06;5027969;28;20435;-49
2021/12/25 06:14:21;;;;;;;0.88;0.88;;;;;;;2.84;76.68;100331.66;5029205;28;20108;-49
2021/12/25 06:16:47;;;;;;;0.90;0.77;;;;;;;2.82;76.49;100349.88;5024450;28;20081;-49
2021/12/25 06:19:13;;;;;;;1.40;0.88;;;;;;;2.82;76.84;100348.97;5027345;28;20049;-48
2021/12/25 06:21:38;;;;;;;0.65;0.65;;;;;;;2.82;76.55;100352.47;5030977;28;20112;-49
2021/12/25 06:24:05;;;;;;;1.25;1.10;;;;;;;2.81;76.48;100360.25;5036236;28;20475;-49
2021/12/25 06:26:34;;;;;;;1.02;1.00;;;;;;;2.82;76.45;100356.78;5032411;28;20033;-49
2021/12/25 06:28:59;;;;;;;1.60;1.10;;;;;;;2.82;76.27;100359.41;5035085;28;20025;-48
2021/12/25 06:31:25;;;;;;;2.15;1.00;;;;;;;2.81;76.70;100357.66;5033151;28;20033;-50
2021/12/25 06:33:52;;;;;;;0.80;0.80;;;;;;;2.81;76.36;100350.69;5029475;28;20040;-49
2021/12/25 06:36:20;;;;;;;1.00;1.00;;;;;;;2.79;76.46;100354.13;5017453;28;20025;-49
2021/12/25 06:38:45;;;;;;;1.30;0.70;;;;;;;2.80;76.56;100371.53;5030920;28;20032;-50
2021/12/25 06:41:12;;;;;;;0.80;0.80;;;;;;;2.78;76.36;100368.00;5026601;28;20461;-50
2021/12/25 06:43:39;;;;;;;1.20;1.00;;;;;;;2.78;76.46;100358.47;5031391;28;20060;-49
2021/12/25 06:46:04;;;;;;;1.10;1.00;;;;;;;2.77;76.56;100366.25;5031597;28;20171;-49
2021/12/25 06:48:29;;;;;;;1.20;1.10;;;;;;;2.78;76.39;100368.00;5015428;28;20026;-49
2021/12/25 06:50:55;;;;;;;1.38;1.00;;;;;;;2.77;76.37;100368.88;5013909;28;20106;-48
2021/12/25 06:53:20;;;;;;;1.70;0.93;;;;;;;2.76;76.42;100365.38;5030372;28;20032;-50
2021/12/25 06:55:46;;;;;;;2.58;1.02;;;;;;;2.76;76.23;100374.91;5031994;28;20036;-50
2021/12/25 06:58:11;;;;;;;1.48;1.30;;;;;;;2.76;76.10;100364.50;5032742;28;20029;-49
2021/12/25 07:00:37;;;;;;;0.85;0.85;;;;;;;2.75;76.38;100370.56;5034370;28;20025;-48
2021/12/25 07:03:02;;;;;;;1.00;0.90;;;;;;;2.75;76.04;100374.03;5030381;28;20032;-49
2021/12/25 07:05:27;;;;;;;0.85;0.82;;;;;;;2.75;76.29;100380.97;5031806;28;20132;-49
2021/12/25 07:07:53;;;;;;;1.45;0.95;;;;;;;2.75;76.60;100394.00;5032872;28;20076;-50
2021/12/25 07:10:19;;;;;;;1.38;0.85;;;;;;;2.74;75.99;100381.84;5030380;28;20063;-50
2021/12/25 07:12:47;;;;;;;1.63;1.00;;;;;;;2.74;75.83;100387.94;5025844;28;20018;-50
2021/12/25 07:15:14;;;;;;;2.15;1.13;;;;;;;2.73;76.24;100396.56;5023706;28;20480;-50
2021/12/25 07:17:39;;;;;;;2.60;1.30;;;;;;;2.72;76.19;100391.31;5014515;28;20120;-50
2021/12/25 07:20:05;;;;;;;0.93;0.93;;;;;;;2.71;75.96;100392.19;5031018;28;20116;-50
2021/12/25 07:22:30;;;;;;;0.95;0.95;;;;;;;2.72;75.82;100399.13;5024705;28;20018;-50
2021/12/25 07:25:00;;;;;;;0.70;0.70;;;;;;;2.71;75.97;100402.59;5032231;28;20061;-50
2021/12/25 07:27:25;;;;;;;1.70;1.02;;;;;;;2.70;76.23;100401.72;5027843;28;20036;-49
2021/12/25 07:29:50;;;;;;;1.00;0.90;;;;;;;2.70;76.17;100404.31;5028259;28;20033;-49
2021/12/25 07:32:15;;;;;;;1.75;1.10;;;;;;;2.68;75.72;100414.75;5027507;28;20049;-50
2021/12/25 07:34:41;;;;;;;1.58;1.17;;;;;;;2.69;76.25;100418.19;5024715;28;20116;-50
2021/12/25 07:37:06;;;;;;;1.05;1.02;;;;;;;2.68;76.09;100401.72;5028215;28;20491;-48
2021/12/25 07:39:32;;;;;;;1.02;0.95;;;;;;;2.68;75.78;100404.31;5025778;28;20104;-48
2021/12/25 07:41:58;;;;;;;1.10;1.00;;;;;;;2.68;75.90;100413.84;5025125;28;20047;-50
2021/12/25 07:44:23;;;;;;;1.42;1.10;;;;;;;2.67;76.25;100405.13;5028087;28;20025;-48
2021/12/25 07:46:48;;;;;;;1.25;0.80;;;;;;;2.66;75.80;100406.00;5026281;28;20103;-49
2021/12/25 07:49:19;;;;;;;2.47;1.23;;;;;;;2.67;75.94;100412.09;5025871;28;20032;-50
2021/12/25 07:51:45;;;;;;;1.75;1.35;;;;;;;2.68;75.96;100409.53;5029209;28;20025;-50
2021/12/25 07:54:11;;;;;;;2.45;1.15;;;;;;;2.65;75.81;100399.03;5029074;28;20275;-49
2021/12/25 07:56:36;;;;;;;1.63;1.10;;;;;;;2.65;75.77;100417.28;5031155;28;20456;-50
2021/12/25 07:59:02;;;;;;;3.35;1.40;;;;;;;2.64;75.65;100410.28;5026968;28;20037;-50
2021/12/25 08:01:28;;;;;;;1.73;1.30;;;;;;;2.64;75.82;100409.44;5029212;28;20510;-50
2021/12/25 08:03:53;;;;;;;2.63;1.45;;;;;;;2.63;75.81;100407.69;5023628;28;20021;-49
2021/12/25 08:06:18;;;;;;;1.83;1.50;;;;;;;2.63;75.85;100418.97;5014740;28;20505;-50
2021/12/25 08:08:45;;;;;;;1.90;1.20;;;;;;;2.62;75.58;100414.59;5037785;28;20032;-50
2021/12/25 08:11:10;;;;;;;1.20;1.08;;;;;;;2.62;75.30;100421.53;5036111;28;20542;-49
2021/12/25 08:13:35;;;;;;;2.33;1.10;;;;;;;2.62;75.75;100424.13;5035114;28;20029;-50
2021/12/25 08:16:01;;;;;;;1.58;1.33;;;;;;;2.61;75.68;100428.47;5035960;28;20075;-46
2021/12/25 08:18:26;;;;;;;1.30;1.23;;;;;;;2.61;75.58;100438.00;5033367;28;20021;-48
2021/12/25 08:20:51;;;;;;;1.42;1.10;;;;;;;2.60;75.63;100437.13;5033145;28;20039;-47
2021/12/25 08:23:22;;;;;;;1.05;0.98;;;;;;;2.60;75.61;100447.53;5043381;28;20025;-47
2021/12/25 08:25:48;;;;;;;2.63;1.33;;;;;;;2.59;75.25;100445.78;5034511;28;20041;-46
2021/12/25 08:28:13;;;;;;;4.82;1.30;;;;;;;2.59;75.54;100447.50;5020791;28;20041;-46
2021/12/25 08:30:40;;;;;;;1.23;1.10;;;;;;;2.57;75.40;100452.72;5035381;28;20022;-46
2021/12/25 08:33:06;;;;;;;1.23;1.13;;;;;;;2.58;75.49;100458.78;5035385;28;20388;-46
2021/12/25 08:35:32;;;;;;;1.38;1.27;;;;;;;2.58;75.45;100459.66;5041873;28;20108;-46
2021/12/25 08:37:57;;;;;;;2.05;1.20;;;;;;;2.58;75.47;100470.06;5033689;28;20080;-47
2021/12/25 08:40:26;;;;;;;1.52;1.42;;;;;;;2.56;75.55;100462.22;5033565;28;20036;-47
2021/12/25 08:42:57;;;;;;;2.80;1.63;;;;;;;2.56;75.46;100466.56;5033093;28;20494;-46
2021/12/25 08:48:26;;;;;;;2.53;1.20;;;;;;;2.55;75.73;100477.81;4990111;28;20034;-47
2021/12/25 08:50:54;;;;;;;2.05;1.83;;;;;;;2.53;75.49;100472.56;4987422;28;20045;-46
2021/12/25 08:53:21;;;;;;;1.70;1.60;;;;;;;2.54;75.22;100473.47;5011565;28;20071;-45
2021/12/25 08:55:48;;;;;;;2.88;2.08;;;;;;;2.53;75.28;100480.38;5036475;28;20032;-47
2021/12/25 08:58:15;;;;;;;2.03;1.50;;;;;;;2.53;75.34;100482.09;5031465;28;20021;-50
2021/12/25 09:00:40;;;;;;;2.08;1.70;;;;;;;2.52;75.45;100481.25;5031437;28;20021;-47
2021/12/25 09:03:06;;;;;;;3.25;2.08;;;;;;;2.52;75.17;100480.34;5038133;28;20058;-46
2021/12/25 09:05:32;;;;;;;2.25;2.05;;;;;;;2.52;75.08;100480.34;5041968;28;20037;-50
2021/12/25 09:07:58;;;;;;;1.60;1.35;;;;;;;2.52;75.10;100485.56;5037764;28;20021;-48
2021/12/25 09:10:23;;;;;;;1.98;1.60;;;;;;;2.51;75.00;100484.69;5035209;28;20064;-48
2021/12/25 09:12:50;;;;;;;2.90;1.75;;;;;;;2.52;74.79;100482.97;5033235;28;20060;-48
2021/12/25 09:15:34;;;;;;;2.05;1.88;;;;;;;2.51;74.82;100489.03;5033829;28;20124;-48
2021/12/25 09:17:59;;;;;;;2.00;1.52;;;;;;;2.50;74.87;100479.47;5034898;28;20461;-48
2021/12/25 09:20:25;;;;;;;2.60;1.90;;;;;;;2.50;75.03;100482.06;5030252;28;20491;-49
2021/12/25 09:22:50;;;;;;;1.70;1.60;;;;;;;2.49;75.03;100491.59;5028603;28;20053;-51
2021/12/25 09:25:16;;;;;;;1.88;1.65;;;;;;;2.49;74.72;100493.31;5017233;28;20390;-51
2021/12/25 09:27:42;;;;;;;2.40;1.77;;;;;;;2.49;74.71;100501.13;5012107;28;20020;-50
2021/12/25 09:30:08;;;;;;;1.83;1.73;;;;;;;2.50;74.78;100492.47;5030769;28;20022;-47
2021/12/25 09:32:34;;;;;;;3.78;2.05;;;;;;;2.49;74.76;100491.59;5033606;28;20553;-47
2021/12/25 09:35:00;;;;;;;1.50;1.40;;;;;;;2.48;75.03;100488.94;5016671;28;20060;-48
2021/12/25 09:37:27;;;;;;;2.15;1.67;;;;;;;2.46;74.53;100481.09;5040006;28;20086;-48
2021/12/25 09:39:52;;;;;;;2.25;1.60;;;;;;;2.48;74.58;100494.16;5036016;28;20024;-46
2021/12/25 09:42:19;;;;;;;1.73;1.58;;;;;;;2.47;74.43;100502.81;5037288;28;20544;-48
2021/12/25 09:44:47;;;;;;;2.10;1.90;;;;;;;2.46;74.65;100506.28;5030208;28;20495;-47
2021/12/25 09:47:12;;;;;;;1.75;1.65;;;;;;;2.46;74.34;100511.50;5032105;28;20029;-46
2021/12/25 09:49:38;;;;;;;3.33;1.88;;;;;;;2.48;74.68;100514.97;5036072;28;20036;-48
2021/12/25 09:52:04;;;;;;;2.42;1.90;;;;;;;2.44;74.57;100520.13;5030233;28;20506;-46
2021/12/25 09:54:36;;;;;;;3.42;2.00;;;;;;;2.45;74.58;100523.63;5033313;28;20479;-48
2021/12/25 09:57:01;;;;;;;2.03;1.83;;;;;;;2.44;74.74;100524.47;5029893;28;20441;-46
2021/12/25 09:59:27;;;;;;;2.45;2.00;;;;;;;2.44;74.53;100527.06;5031665;28;20025;-47
2021/12/25 10:01:56;;;;;;;3.03;2.15;;;;;;;2.44;74.45;100527.94;5025210;28;20456;-48
2021/12/25 10:04:38;;;;;;;2.22;1.80;;;;;;;2.43;74.43;100525.28;5024944;28;20029;-48
2021/12/25 10:07:29;;;;;;;1.83;1.70;;;;;;;2.43;74.23;100523.56;5030042;28;20482;-48
2021/12/25 10:10:07;;;;;;;3.97;2.05;;;;;;;2.43;74.20;100522.69;5027106;28;20020;-48
2021/12/25 10:12:43;;;;;;;2.58;1.90;;;;;;;2.42;74.43;100524.44;5036153;28;20092;-48
2021/12/25 10:15:15;;;;;;;1.88;1.60;;;;;;;2.41;74.84;100517.44;5030214;28;20120;-48
2021/12/25 10:17:57;;;;;;;2.33;1.90;;;;;;;2.41;74.25;100522.66;5028856;28;20029;-48
2021/12/25 10:20:25;;;;;;;2.05;1.85;;;;;;;2.41;74.22;100508.78;5012823;28;20542;-48
2021/12/25 10:23:13;;;;;;;2.50;1.90;;;;;;;2.40;74.12;100510.50;5028600;28;20041;-48
2021/12/25 10:25:55;;;;;;;2.55;1.90;;;;;;;2.39;74.26;100511.34;5027248;28;20033;-48
2021/12/25 10:28:27;;;;;;;1.95;1.75;;;;;;;2.39;74.26;100511.34;5031667;28;20086;-47
2021/12/25 10:31:18;;;;;;;3.28;2.38;;;;;;;2.39;74.38;100503.53;5031936;28;20068;-48
2021/12/25 10:33:47;;;;;;;;;;;;;;;2.38;74.10;100498.28;5010060;28;20099;-47
2021/12/25 10:36:28;;;;;;;2.13;1.90;;;;;;;2.35;74.09;100495.63;5030019;28;19919;-47
2021/12/25 10:39:09;;;;;;;2.42;1.80;;;;;;;2.36;74.25;100510.38;5030988;28;20026;-48
2021/12/25 10:41:38;;;;;;;2.05;1.95;;;;;;;2.36;74.36;100510.38;5025628;28;20029;-48
2021/12/25 10:44:24;;;;;;;2.80;2.42;;;;;;;2.36;74.15;100499.97;5034259;28;20487;-49
2021/12/25 10:46:52;;;;;;;2.70;2.13;;;;;;;2.36;74.28;100500.84;5030290;28;20112;-49
2021/12/25 10:49:19;;;;;;;4.10;2.25;;;;;;;2.35;73.97;100509.53;5032830;28;20033;-50
2021/12/25 10:51:45;;;;;;;3.75;2.13;;;;;;;2.35;74.14;100508.63;5030651;28;20068;-49
2021/12/25 10:54:13;;;;;;;2.80;2.03;;;;;;;2.36;74.21;100507.78;5025027;28;20104;-49
2021/12/25 10:56:40;;;;;;;3.03;1.92;;;;;;;2.35;74.09;100512.13;5009211;28;20080;-51
2021/12/25 10:59:11;;;;;;;3.65;2.42;;;;;;;2.33;73.97;100506.00;5028357;28;20483;-51
2021/12/25 11:01:45;;;;;;;2.45;2.17;;;;;;;2.34;74.33;100512.97;5036491;28;20036;-49
2021/12/25 11:04:31;;;;;;;2.08;1.77;;;;;;;2.33;74.19;100520.75;5006812;28;20036;-50
2021/12/25 11:06:57;;;;;;;3.10;2.40;;;;;;;2.28;73.78;100523.25;5029066;28;20411;-49
2021/12/25 11:09:22;;;;;;;2.50;2.10;;;;;;;2.32;73.89;100522.47;5036456;28;20029;-50
2021/12/25 11:12:14;;;;;;;2.28;1.90;;;;;;;2.31;74.12;100518.09;5030629;28;20024;-51
2021/12/25 11:14:39;;;;;;;2.50;1.77;;;;;;;2.29;74.00;100518.06;5030996;28;20487;-50
2021/12/25 11:17:22;;;;;;;2.78;2.25;;;;;;;2.30;74.24;100521.53;5030277;28;20106;-50
2021/12/25 11:19:57;;;;;;;2.58;1.90;;;;;;;2.30;73.94;100521.53;5014709;28;20032;-50
2021/12/25 11:22:25;;;;;;;2.63;1.88;;;;;;;2.29;73.96;100517.19;5030538;28;20078;-50
2021/12/25 11:24:50;;;;;;;2.92;2.20;;;;;;;2.29;74.00;100525.00;5030799;28;20453;-51
2021/12/25 11:27:15;;;;;;;5.80;2.10;;;;;;;2.27;73.76;100511.94;5040040;28;20116;-50
2021/12/25 11:29:42;;;;;;;2.67;1.80;;;;;;;2.28;73.65;100523.25;5035197;28;20361;-48
2021/12/25 11:32:16;;;;;;;1.95;1.52;;;;;;;2.28;73.76;100523.25;5035961;28;20053;-50
2021/12/25 11:34:41;;;;;;;3.45;1.92;;;;;;;2.26;73.89;100531.00;5032636;28;20108;-48
2021/12/25 11:37:07;;;;;;;2.83;1.95;;;;;;;2.26;73.97;100525.81;5031039;28;20116;-48
2021/12/25 11:39:34;;;;;;;2.25;1.80;;;;;;;2.26;73.77;100519.72;5032270;28;20037;-48
2021/12/25 11:42:05;;;;;;;3.03;2.40;;;;;;;2.26;73.80;100520.59;5031488;28;20033;-48
2021/12/25 11:44:38;;;;;;;2.35;2.13;;;;;;;2.26;73.86;100524.91;5028267;28;20037;-48
2021/12/25 11:47:04;;;;;;;2.33;1.90;;;;;;;2.25;73.77;100518.84;5029769;28;20033;-48
2021/12/25 11:49:29;;;;;;;3.08;2.20;;;;;;;2.26;73.99;100509.28;5025078;28;20075;-48
2021/12/25 11:52:00;;;;;;;2.75;1.80;;;;;;;2.26;73.68;100511.91;5025586;28;20033;-48
2021/12/25 11:57:35;;;;;;;2.72;2.30;;;;;;;2.25;73.79;100508.44;5021618;28;20032;-48
2021/12/25 11:59:58;;;;;;;1.77;1.67;;;;;;;2.26;73.80;100514.50;5016186;28;20064;-48
2021/12/25 12:02:38;;;;;;;2.03;1.75;;;;;;;2.26;73.84;100511.91;5025173;28;20049;-48
2021/12/25 12:05:17;;;;;;;2.83;2.10;;;;;;;2.23;73.98;100512.72;5024164;28;20513;-48
2021/12/25 12:08:15;;;;;;;2.58;1.90;;;;;;;2.24;73.65;100511.00;5035792;28;20033;-48
2021/12/25 12:10:43;;;;;;;2.17;1.98;;;;;;;2.22;73.71;100516.16;4997910;28;20038;-48
2021/12/25 12:13:20;;;;;;;3.55;2.25;;;;;;;2.23;73.92;100524.88;5020906;28;20075;-48
2021/12/25 12:15:55;;;;;;;2.67;2.13;;;;;;;2.21;73.75;100519.63;5025519;28;20169;-48
2021/12/25 12:18:24;;;;;;;2.45;2.25;;;;;;;2.20;73.82;100514.38;5007545;28;20033;-48
2021/12/25 12:20:50;;;;;;;2.30;1.80;;;;;;;2.22;73.92;100517.88;5022717;28;20092;-48
2021/12/25 12:26:14;;;;;;;2.60;2.08;;;;;;;2.19;73.78;100516.09;5026683;28;20083;-48
2021/12/25 12:28:49;;;;;;;2.97;2.17;;;;;;;2.19;73.82;100516.09;5022280;28;20033;-48
2021/12/25 12:31:50;;;;;;;3.42;2.20;;;;;;;2.20;73.86;100517.84;5025779;28;20028;-48
2021/12/25 12:34:30;;;;;;;2.50;2.23;;;;;;;2.17;73.84;100516.06;4957442;28;20507;-48
2021/12/25 12:37:13;;;;;;;2.72;2.53;;;;;;;2.16;73.55;100509.09;5021311;28;20175;-48
2021/12/25 12:39:42;;;;;;;2.30;2.10;;;;;;;2.14;73.60;100515.97;5011689;28;20037;-48
2021/12/25 12:42:11;;;;;;;2.28;2.08;;;;;;;2.14;73.65;100517.72;5026618;28;20443;-48
2021/12/25 12:44:37;;;;;;;3.65;2.63;;;;;;;2.15;73.64;100522.97;5023788;28;20048;-48
2021/12/25 12:47:14;;;;;;;3.03;2.30;;;;;;;2.17;73.86;100528.22;5024716;28;20472;-48
2021/12/25 12:49:39;;;;;;;3.53;2.30;;;;;;;2.18;73.70;100530.84;5028683;28;20076;-48
2021/12/25 12:52:15;;;;;;;2.30;2.10;;;;;;;2.18;73.62;100533.44;5026327;28;20025;-49
2021/12/25 12:55:00;;;;;;;2.40;2.05;;;;;;;2.18;73.78;100522.16;5035634;28;20271;-48
2021/12/25 12:57:38;;;;;;;3.15;2.35;;;;;;;2.17;73.70;100521.25;5031381;28;20078;-48